sensor_id;sensor_type;location;lat;lon;timestamp;P1;durP1;ratioP1;P2;durP2;ratioP2
739;SDS011;354;42.694;23.336;2023-06-24T00:02:53;16.63;;;15.20;;
739;SDS011;354;42.694;23.336;2023-06-24T00:06:20;17.80;;;16.05;;
739;SDS011;354;42.694;23.336;2023-06-24T00:09:45;16.92;;;15.50;;
739;SDS011;354;42.694;23.336;2023-06-24T00:13:00;15.93;;;14.70;;
739;SDS011;354;42.694;23.336;2023-06-24T00:16:25;17.80;;;16.05;;
739;SDS011;354;42.694;23.336;2023-06-24T00:19:53;16.65;;;15.20;;
739;SDS011;354;42.694;23.336;2023-06-24T00:23:21;16.48;;;14.95;;
739;SDS011;354;42.694;23.336;2023-06-24T00:26:27;16.20;;;14.80;;
739;SDS011;354;42.694;23.336;2023-06-24T00:29:52;16.10;;;14.65;;
739;SDS011;354;42.694;23.336;2023-06-24T00:32:57;18.13;;;16.52;;
739;SDS011;354;42.694;23.336;2023-06-24T00:36:03;19.55;;;16.35;;
739;SDS011;354;42.694;23.336;2023-06-24T00:39:09;16.63;;;15.32;;
739;SDS011;354;42.694;23.336;2023-06-24T00:42:35;21.83;;;16.15;;
739;SDS011;354;42.694;23.336;2023-06-24T00:46:02;17.13;;;15.70;;
739;SDS011;354;42.694;23.336;2023-06-24T00:49:28;18.20;;;16.42;;
739;SDS011;354;42.694;23.336;2023-06-24T00:52:53;17.02;;;15.50;;
739;SDS011;354;42.694;23.336;2023-06-24T00:56:18;17.95;;;16.25;;
739;SDS011;354;42.694;23.336;2023-06-24T00:59:47;19.67;;;16.15;;
739;SDS011;354;42.694;23.336;2023-06-24T01:03:17;16.27;;;15.00;;
739;SDS011;354;42.694;23.336;2023-06-24T01:06:42;17.00;;;15.50;;
739;SDS011;354;42.694;23.336;2023-06-24T01:09:51;16.77;;;15.07;;
739;SDS011;354;42.694;23.336;2023-06-24T01:13:01;16.95;;;15.55;;
739;SDS011;354;42.694;23.336;2023-06-24T01:19:53;17.63;;;15.98;;
739;SDS011;354;42.694;23.336;2023-06-24T01:30:21;17.63;;;15.93;;
739;SDS011;354;42.694;23.336;2023-06-24T01:33:45;17.13;;;15.48;;
739;SDS011;354;42.694;23.336;2023-06-24T01:36:54;18.13;;;16.27;;
739;SDS011;354;42.694;23.336;2023-06-24T01:40:48;20.13;;;16.15;;
739;SDS011;354;42.694;23.336;2023-06-24T01:43:59;18.27;;;16.58;;
739;SDS011;354;42.694;23.336;2023-06-24T01:47:10;17.95;;;16.33;;
739;SDS011;354;42.694;23.336;2023-06-24T01:50:16;18.52;;;16.65;;
739;SDS011;354;42.694;23.336;2023-06-24T01:53:42;17.85;;;15.95;;
739;SDS011;354;42.694;23.336;2023-06-24T01:56:50;18.77;;;15.93;;
739;SDS011;354;42.694;23.336;2023-06-24T02:00:18;18.05;;;16.52;;
739;SDS011;354;42.694;23.336;2023-06-24T02:03:44;18.83;;;15.93;;
739;SDS011;354;42.694;23.336;2023-06-24T02:07:00;19.17;;;17.27;;
739;SDS011;354;42.694;23.336;2023-06-24T02:10:25;18.67;;;16.80;;
739;SDS011;354;42.694;23.336;2023-06-24T02:13:50;18.90;;;17.10;;
739;SDS011;354;42.694;23.336;2023-06-24T02:17:15;18.60;;;16.70;;
739;SDS011;354;42.694;23.336;2023-06-24T02:20:40;19.40;;;17.42;;
739;SDS011;354;42.694;23.336;2023-06-24T02:24:05;20.73;;;18.83;;
739;SDS011;354;42.694;23.336;2023-06-24T02:27:32;20.90;;;18.85;;
739;SDS011;354;42.694;23.336;2023-06-24T02:31:00;20.23;;;18.10;;
739;SDS011;354;42.694;23.336;2023-06-24T02:34:28;20.92;;;19.02;;
739;SDS011;354;42.694;23.336;2023-06-24T02:37:54;20.67;;;18.58;;
739;SDS011;354;42.694;23.336;2023-06-24T02:41:22;22.08;;;19.98;;
739;SDS011;354;42.694;23.336;2023-06-24T02:44:47;23.05;;;20.55;;
739;SDS011;354;42.694;23.336;2023-06-24T02:48:13;21.58;;;19.27;;
739;SDS011;354;42.694;23.336;2023-06-24T02:51:41;22.60;;;20.40;;
739;SDS011;354;42.694;23.336;2023-06-24T02:55:05;22.25;;;20.08;;
739;SDS011;354;42.694;23.336;2023-06-24T02:58:28;23.35;;;20.95;;
739;SDS011;354;42.694;23.336;2023-06-24T03:01:54;24.50;;;21.85;;
739;SDS011;354;42.694;23.336;2023-06-24T03:05:19;24.25;;;21.88;;
739;SDS011;354;42.694;23.336;2023-06-24T03:08:36;22.20;;;20.00;;
739;SDS011;354;42.694;23.336;2023-06-24T03:12:02;24.13;;;21.73;;
739;SDS011;354;42.694;23.336;2023-06-24T03:15:30;23.23;;;20.25;;
739;SDS011;354;42.694;23.336;2023-06-24T03:18:55;22.95;;;20.55;;
739;SDS011;354;42.694;23.336;2023-06-24T03:22:21;28.33;;;21.30;;
739;SDS011;354;42.694;23.336;2023-06-24T03:25:46;22.20;;;19.90;;
739;SDS011;354;42.694;23.336;2023-06-24T03:29:11;23.30;;;20.55;;
739;SDS011;354;42.694;23.336;2023-06-24T03:32:36;27.63;;;21.27;;
739;SDS011;354;42.694;23.336;2023-06-24T03:36:02;25.85;;;21.45;;
739;SDS011;354;42.694;23.336;2023-06-24T03:39:32;23.45;;;21.00;;
739;SDS011;354;42.694;23.336;2023-06-24T03:42:57;23.35;;;20.95;;
739;SDS011;354;42.694;23.336;2023-06-24T03:46:23;28.63;;;22.20;;
739;SDS011;354;42.694;23.336;2023-06-24T03:49:48;22.92;;;20.48;;
739;SDS011;354;42.694;23.336;2023-06-24T03:53:14;23.33;;;20.83;;
739;SDS011;354;42.694;23.336;2023-06-24T03:56:39;25.70;;;20.52;;
739;SDS011;354;42.694;23.336;2023-06-24T04:00:04;27.88;;;20.40;;
739;SDS011;354;42.694;23.336;2023-06-24T04:03:32;24.98;;;21.63;;
739;SDS011;354;42.694;23.336;2023-06-24T04:06:57;30.23;;;22.33;;
739;SDS011;354;42.694;23.336;2023-06-24T04:10:23;25.50;;;21.05;;
739;SDS011;354;42.694;23.336;2023-06-24T04:13:49;22.55;;;20.27;;
739;SDS011;354;42.694;23.336;2023-06-24T04:17:14;23.25;;;20.92;;
739;SDS011;354;42.694;23.336;2023-06-24T04:20:41;22.52;;;20.23;;
739;SDS011;354;42.694;23.336;2023-06-24T04:23:47;22.45;;;20.10;;
739;SDS011;354;42.694;23.336;2023-06-24T04:27:12;28.35;;;21.70;;
739;SDS011;354;42.694;23.336;2023-06-24T04:30:40;34.25;;;21.45;;
739;SDS011;354;42.694;23.336;2023-06-24T04:33:47;27.33;;;19.15;;
739;SDS011;354;42.694;23.336;2023-06-24T04:37:09;22.88;;;19.13;;
739;SDS011;354;42.694;23.336;2023-06-24T04:40:36;21.58;;;19.50;;
739;SDS011;354;42.694;23.336;2023-06-24T04:44:01;20.52;;;18.52;;
739;SDS011;354;42.694;23.336;2023-06-24T04:47:26;23.02;;;17.92;;
739;SDS011;354;42.694;23.336;2023-06-24T04:50:54;20.85;;;18.80;;
739;SDS011;354;42.694;23.336;2023-06-24T04:54:21;20.98;;;18.85;;
739;SDS011;354;42.694;23.336;2023-06-24T04:57:50;21.13;;;18.73;;
739;SDS011;354;42.694;23.336;2023-06-24T05:01:16;19.80;;;17.73;;
739;SDS011;354;42.694;23.336;2023-06-24T05:04:22;20.30;;;18.35;;
739;SDS011;354;42.694;23.336;2023-06-24T05:07:50;20.50;;;18.60;;
739;SDS011;354;42.694;23.336;2023-06-24T05:11:15;21.67;;;19.77;;
739;SDS011;354;42.694;23.336;2023-06-24T05:14:43;23.95;;;21.60;;
739;SDS011;354;42.694;23.336;2023-06-24T05:18:09;21.80;;;19.80;;
739;SDS011;354;42.694;23.336;2023-06-24T05:21:40;20.55;;;18.75;;
739;SDS011;354;42.694;23.336;2023-06-24T05:25:08;21.38;;;18.33;;
739;SDS011;354;42.694;23.336;2023-06-24T05:28:40;18.80;;;16.88;;
739;SDS011;354;42.694;23.336;2023-06-24T05:32:08;21.98;;;20.02;;
739;SDS011;354;42.694;23.336;2023-06-24T05:35:43;19.90;;;18.20;;
739;SDS011;354;42.694;23.336;2023-06-24T05:38:56;20.08;;;18.25;;
739;SDS011;354;42.694;23.336;2023-06-24T05:42:18;20.17;;;16.60;;
739;SDS011;354;42.694;23.336;2023-06-24T05:45:49;18.52;;;16.80;;
739;SDS011;354;42.694;23.336;2023-06-24T05:49:30;16.30;;;15.10;;
739;SDS011;354;42.694;23.336;2023-06-24T05:53:15;17.77;;;16.17;;
739;SDS011;354;42.694;23.336;2023-06-24T05:56:47;18.10;;;16.50;;
739;SDS011;354;42.694;23.336;2023-06-24T06:00:17;18.80;;;17.17;;
739;SDS011;354;42.694;23.336;2023-06-24T06:03:43;19.13;;;17.17;;
739;SDS011;354;42.694;23.336;2023-06-24T06:07:25;20.23;;;18.48;;
739;SDS011;354;42.694;23.336;2023-06-24T06:10:56;19.33;;;17.67;;
739;SDS011;354;42.694;23.336;2023-06-24T06:14:26;18.00;;;16.38;;
739;SDS011;354;42.694;23.336;2023-06-24T06:17:53;17.05;;;15.45;;
739;SDS011;354;42.694;23.336;2023-06-24T06:21:19;17.10;;;15.52;;
739;SDS011;354;42.694;23.336;2023-06-24T06:24:53;17.58;;;16.17;;
739;SDS011;354;42.694;23.336;2023-06-24T06:28:21;16.95;;;15.70;;
739;SDS011;354;42.694;23.336;2023-06-24T06:31:54;15.93;;;14.82;;
739;SDS011;354;42.694;23.336;2023-06-24T06:35:21;18.02;;;16.45;;
739;SDS011;354;42.694;23.336;2023-06-24T06:38:53;16.90;;;15.57;;
739;SDS011;354;42.694;23.336;2023-06-24T06:42:34;16.77;;;15.45;;
739;SDS011;354;42.694;23.336;2023-06-24T06:46:03;17.33;;;15.77;;
739;SDS011;354;42.694;23.336;2023-06-24T06:49:34;17.55;;;15.95;;
739;SDS011;354;42.694;23.336;2023-06-24T06:53:02;22.60;;;19.75;;
739;SDS011;354;42.694;23.336;2023-06-24T06:56:30;16.65;;;15.18;;
739;SDS011;354;42.694;23.336;2023-06-24T07:00:01;17.75;;;16.27;;
739;SDS011;354;42.694;23.336;2023-06-24T07:03:28;16.45;;;15.02;;
739;SDS011;354;42.694;23.336;2023-06-24T07:06:56;17.42;;;15.68;;
739;SDS011;354;42.694;23.336;2023-06-24T07:10:24;18.25;;;16.75;;
739;SDS011;354;42.694;23.336;2023-06-24T07:13:59;17.95;;;16.65;;
739;SDS011;354;42.694;23.336;2023-06-24T07:17:24;17.00;;;15.90;;
739;SDS011;354;42.694;23.336;2023-06-24T07:20:52;17.50;;;16.00;;
739;SDS011;354;42.694;23.336;2023-06-24T07:24:18;17.70;;;16.30;;
739;SDS011;354;42.694;23.336;2023-06-24T07:27:43;16.58;;;15.27;;
739;SDS011;354;42.694;23.336;2023-06-24T07:31:12;17.15;;;15.95;;
739;SDS011;354;42.694;23.336;2023-06-24T07:34:44;17.67;;;15.65;;
739;SDS011;354;42.694;23.336;2023-06-24T07:38:15;16.30;;;14.95;;
739;SDS011;354;42.694;23.336;2023-06-24T07:41:44;17.98;;;16.67;;
739;SDS011;354;42.694;23.336;2023-06-24T07:45:14;16.15;;;14.70;;
739;SDS011;354;42.694;23.336;2023-06-24T07:48:44;16.98;;;15.50;;
739;SDS011;354;42.694;23.336;2023-06-24T07:52:17;16.27;;;15.05;;
739;SDS011;354;42.694;23.336;2023-06-24T07:55:50;17.15;;;15.70;;
739;SDS011;354;42.694;23.336;2023-06-24T07:59:16;22.08;;;20.25;;
739;SDS011;354;42.694;23.336;2023-06-24T08:02:44;17.38;;;15.80;;
739;SDS011;354;42.694;23.336;2023-06-24T08:06:20;17.60;;;15.90;;
739;SDS011;354;42.694;23.336;2023-06-24T08:09:47;18.25;;;16.73;;
739;SDS011;354;42.694;23.336;2023-06-24T08:13:17;18.63;;;17.13;;
739;SDS011;354;42.694;23.336;2023-06-24T08:17:02;17.55;;;16.15;;
739;SDS011;354;42.694;23.336;2023-06-24T08:20:35;19.27;;;17.05;;
739;SDS011;354;42.694;23.336;2023-06-24T08:24:04;17.52;;;15.80;;
739;SDS011;354;42.694;23.336;2023-06-24T08:27:33;17.15;;;15.77;;
739;SDS011;354;42.694;23.336;2023-06-24T08:30:58;18.58;;;16.92;;
739;SDS011;354;42.694;23.336;2023-06-24T08:34:30;17.30;;;15.70;;
739;SDS011;354;42.694;23.336;2023-06-24T08:38:09;16.23;;;14.93;;
739;SDS011;354;42.694;23.336;2023-06-24T08:41:39;16.30;;;14.80;;
739;SDS011;354;42.694;23.336;2023-06-24T08:52:09;16.98;;;15.27;;
739;SDS011;354;42.694;23.336;2023-06-24T08:55:36;16.83;;;15.15;;
739;SDS011;354;42.694;23.336;2023-06-24T08:59:05;16.05;;;14.75;;
739;SDS011;354;42.694;23.336;2023-06-24T09:09:54;16.23;;;14.85;;
739;SDS011;354;42.694;23.336;2023-06-24T09:13:38;16.15;;;14.73;;
739;SDS011;354;42.694;23.336;2023-06-24T09:17:05;16.90;;;15.35;;
739;SDS011;354;42.694;23.336;2023-06-24T09:20:34;20.92;;;18.08;;
739;SDS011;354;42.694;23.336;2023-06-24T09:23:41;17.15;;;15.60;;
739;SDS011;354;42.694;23.336;2023-06-24T09:26:11;17.67;;;16.23;;
739;SDS011;354;42.694;23.336;2023-06-24T09:28:58;18.15;;;16.50;;
739;SDS011;354;42.694;23.336;2023-06-24T09:31:24;26.85;;;24.33;;
739;SDS011;354;42.694;23.336;2023-06-24T09:34:20;18.95;;;17.05;;
739;SDS011;354;42.694;23.336;2023-06-24T09:36:51;17.50;;;15.90;;
739;SDS011;354;42.694;23.336;2023-06-24T09:39:18;18.35;;;15.32;;
739;SDS011;354;42.694;23.336;2023-06-24T09:41:47;17.30;;;15.68;;
739;SDS011;354;42.694;23.336;2023-06-24T09:44:40;17.20;;;15.43;;
739;SDS011;354;42.694;23.336;2023-06-24T09:48:13;16.63;;;15.02;;
739;SDS011;354;42.694;23.336;2023-06-24T09:51:02;17.40;;;15.60;;
739;SDS011;354;42.694;23.336;2023-06-24T09:53:32;16.45;;;14.88;;
739;SDS011;354;42.694;23.336;2023-06-24T09:56:03;17.02;;;15.48;;
739;SDS011;354;42.694;23.336;2023-06-24T09:59:06;18.17;;;15.55;;
739;SDS011;354;42.694;23.336;2023-06-24T10:01:36;16.05;;;14.45;;
739;SDS011;354;42.694;23.336;2023-06-24T10:04:06;15.68;;;14.30;;
739;SDS011;354;42.694;23.336;2023-06-24T10:07:31;18.83;;;16.92;;
739;SDS011;354;42.694;23.336;2023-06-24T10:10:00;18.55;;;16.95;;
739;SDS011;354;42.694;23.336;2023-06-24T10:12:30;16.92;;;15.50;;
739;SDS011;354;42.694;23.336;2023-06-24T10:15:18;18.75;;;17.08;;
739;SDS011;354;42.694;23.336;2023-06-24T10:18:38;16.08;;;14.68;;
739;SDS011;354;42.694;23.336;2023-06-24T10:21:58;16.25;;;14.95;;
739;SDS011;354;42.694;23.336;2023-06-24T10:24:46;16.63;;;15.13;;
739;SDS011;354;42.694;23.336;2023-06-24T10:27:15;16.88;;;15.50;;
739;SDS011;354;42.694;23.336;2023-06-24T10:29:46;16.33;;;14.85;;
739;SDS011;354;42.694;23.336;2023-06-24T10:32:13;16.42;;;14.85;;
739;SDS011;354;42.694;23.336;2023-06-24T10:34:42;18.05;;;16.38;;
739;SDS011;354;42.694;23.336;2023-06-24T10:37:08;17.95;;;16.55;;
739;SDS011;354;42.694;23.336;2023-06-24T10:39:37;14.90;;;13.68;;
739;SDS011;354;42.694;23.336;2023-06-24T10:42:31;14.55;;;13.05;;
739;SDS011;354;42.694;23.336;2023-06-24T10:45:19;14.65;;;13.35;;
739;SDS011;354;42.694;23.336;2023-06-24T10:50:22;13.70;;;12.32;;
739;SDS011;354;42.694;23.336;2023-06-24T10:52:51;15.02;;;13.93;;
739;SDS011;354;42.694;23.336;2023-06-24T10:55:24;14.25;;;13.15;;
739;SDS011;354;42.694;23.336;2023-06-24T10:57:52;14.63;;;13.02;;
739;SDS011;354;42.694;23.336;2023-06-24T11:00:19;13.48;;;12.13;;
739;SDS011;354;42.694;23.336;2023-06-24T11:02:45;13.05;;;11.98;;
739;SDS011;354;42.694;23.336;2023-06-24T11:05:11;13.75;;;12.57;;
739;SDS011;354;42.694;23.336;2023-06-24T11:07:37;12.10;;;11.07;;
739;SDS011;354;42.694;23.336;2023-06-24T11:10:14;15.30;;;12.43;;
739;SDS011;354;42.694;23.336;2023-06-24T11:12:40;13.40;;;12.02;;
739;SDS011;354;42.694;23.336;2023-06-24T11:15:10;15.95;;;13.80;;
739;SDS011;354;42.694;23.336;2023-06-24T11:17:41;12.93;;;11.93;;
739;SDS011;354;42.694;23.336;2023-06-24T11:20:09;11.88;;;10.88;;
739;SDS011;354;42.694;23.336;2023-06-24T11:23:18;15.75;;;13.70;;
739;SDS011;354;42.694;23.336;2023-06-24T11:25:46;13.27;;;12.18;;
739;SDS011;354;42.694;23.336;2023-06-24T11:28:14;12.57;;;11.50;;
739;SDS011;354;42.694;23.336;2023-06-24T11:30:43;15.82;;;14.32;;
739;SDS011;354;42.694;23.336;2023-06-24T11:33:09;19.42;;;17.33;;
739;SDS011;354;42.694;23.336;2023-06-24T11:35:34;22.30;;;20.02;;
739;SDS011;354;42.694;23.336;2023-06-24T11:38:01;13.13;;;11.93;;
739;SDS011;354;42.694;23.336;2023-06-24T11:40:27;12.25;;;11.05;;
739;SDS011;354;42.694;23.336;2023-06-24T11:42:52;13.07;;;12.00;;
739;SDS011;354;42.694;23.336;2023-06-24T11:45:20;12.57;;;11.32;;
739;SDS011;354;42.694;23.336;2023-06-24T11:47:46;13.10;;;11.80;;
739;SDS011;354;42.694;23.336;2023-06-24T11:50:13;11.90;;;11.00;;
739;SDS011;354;42.694;23.336;2023-06-24T11:52:42;13.00;;;11.90;;
739;SDS011;354;42.694;23.336;2023-06-24T11:55:19;12.98;;;11.80;;
739;SDS011;354;42.694;23.336;2023-06-24T12:00:29;11.95;;;10.95;;
739;SDS011;354;42.694;23.336;2023-06-24T12:02:57;14.25;;;13.07;;
739;SDS011;354;42.694;23.336;2023-06-24T12:05:31;14.23;;;12.93;;
739;SDS011;354;42.694;23.336;2023-06-24T12:07:58;12.93;;;11.93;;
739;SDS011;354;42.694;23.336;2023-06-24T12:10:27;14.52;;;12.05;;
739;SDS011;354;42.694;23.336;2023-06-24T12:12:54;16.20;;;12.65;;
739;SDS011;354;42.694;23.336;2023-06-24T12:15:21;15.05;;;13.85;;
739;SDS011;354;42.694;23.336;2023-06-24T12:17:46;12.55;;;11.20;;
739;SDS011;354;42.694;23.336;2023-06-24T12:20:12;14.38;;;13.07;;
739;SDS011;354;42.694;23.336;2023-06-24T12:22:39;20.15;;;18.15;;
739;SDS011;354;42.694;23.336;2023-06-24T12:25:04;19.42;;;17.23;;
739;SDS011;354;42.694;23.336;2023-06-24T12:27:30;12.75;;;11.75;;
739;SDS011;354;42.694;23.336;2023-06-24T12:29:56;12.25;;;11.05;;
739;SDS011;354;42.694;23.336;2023-06-24T12:32:21;18.77;;;17.08;;
739;SDS011;354;42.694;23.336;2023-06-24T12:34:46;15.55;;;12.63;;
739;SDS011;354;42.694;23.336;2023-06-24T12:37:12;13.52;;;12.35;;
739;SDS011;354;42.694;23.336;2023-06-24T12:39:37;13.40;;;12.50;;
739;SDS011;354;42.694;23.336;2023-06-24T12:42:02;14.18;;;12.70;;
739;SDS011;354;42.694;23.336;2023-06-24T12:44:28;13.52;;;12.35;;
739;SDS011;354;42.694;23.336;2023-06-24T12:46:53;12.85;;;11.95;;
739;SDS011;354;42.694;23.336;2023-06-24T12:49:19;26.00;;;23.17;;
739;SDS011;354;42.694;23.336;2023-06-24T12:51:44;16.52;;;13.77;;
739;SDS011;354;42.694;23.336;2023-06-24T12:54:10;14.13;;;12.93;;
739;SDS011;354;42.694;23.336;2023-06-24T12:56:37;12.35;;;11.45;;
739;SDS011;354;42.694;23.336;2023-06-24T12:59:02;13.85;;;12.55;;
739;SDS011;354;42.694;23.336;2023-06-24T13:01:28;14.18;;;12.75;;
739;SDS011;354;42.694;23.336;2023-06-24T13:03:53;13.35;;;12.23;;
739;SDS011;354;42.694;23.336;2023-06-24T13:06:18;14.60;;;13.25;;
739;SDS011;354;42.694;23.336;2023-06-24T13:08:44;14.27;;;13.00;;
739;SDS011;354;42.694;23.336;2023-06-24T13:11:09;18.63;;;13.80;;
739;SDS011;354;42.694;23.336;2023-06-24T13:13:35;16.13;;;14.27;;
739;SDS011;354;42.694;23.336;2023-06-24T13:16:01;13.13;;;12.02;;
739;SDS011;354;42.694;23.336;2023-06-24T13:18:26;16.08;;;14.80;;
739;SDS011;354;42.694;23.336;2023-06-24T13:20:51;14.88;;;13.55;;
739;SDS011;354;42.694;23.336;2023-06-24T13:23:17;17.17;;;15.40;;
739;SDS011;354;42.694;23.336;2023-06-24T13:25:42;13.60;;;12.43;;
739;SDS011;354;42.694;23.336;2023-06-24T13:28:08;16.67;;;11.85;;
739;SDS011;354;42.694;23.336;2023-06-24T13:30:33;19.70;;;13.23;;
739;SDS011;354;42.694;23.336;2023-06-24T13:32:58;19.90;;;12.52;;
739;SDS011;354;42.694;23.336;2023-06-24T13:35:24;25.23;;;11.88;;
739;SDS011;354;42.694;23.336;2023-06-24T13:37:49;21.67;;;11.38;;
739;SDS011;354;42.694;23.336;2023-06-24T13:40:14;24.95;;;10.38;;
739;SDS011;354;42.694;23.336;2023-06-24T13:42:40;16.50;;;10.50;;
739;SDS011;354;42.694;23.336;2023-06-24T13:45:05;23.13;;;12.20;;
739;SDS011;354;42.694;23.336;2023-06-24T13:47:31;20.75;;;11.90;;
739;SDS011;354;42.694;23.336;2023-06-24T13:49:57;9.30;;;8.25;;
739;SDS011;354;42.694;23.336;2023-06-24T13:52:23;11.50;;;9.55;;
739;SDS011;354;42.694;23.336;2023-06-24T13:54:49;11.90;;;9.40;;
739;SDS011;354;42.694;23.336;2023-06-24T13:57:15;12.90;;;9.90;;
739;SDS011;354;42.694;23.336;2023-06-24T13:59:41;13.70;;;9.77;;
739;SDS011;354;42.694;23.336;2023-06-24T14:02:06;13.85;;;12.85;;
739;SDS011;354;42.694;23.336;2023-06-24T14:04:33;18.40;;;16.95;;
739;SDS011;354;42.694;23.336;2023-06-24T14:06:59;24.08;;;22.30;;
739;SDS011;354;42.694;23.336;2023-06-24T14:09:25;25.27;;;22.95;;
739;SDS011;354;42.694;23.336;2023-06-24T14:11:50;22.95;;;21.00;;
739;SDS011;354;42.694;23.336;2023-06-24T14:14:16;23.17;;;21.38;;
739;SDS011;354;42.694;23.336;2023-06-24T14:16:42;22.70;;;21.02;;
739;SDS011;354;42.694;23.336;2023-06-24T14:19:07;21.98;;;19.40;;
739;SDS011;354;42.694;23.336;2023-06-24T14:21:33;25.20;;;16.20;;
739;SDS011;354;42.694;23.336;2023-06-24T14:24:00;18.73;;;16.27;;
739;SDS011;354;42.694;23.336;2023-06-24T14:26:26;19.38;;;17.33;;
739;SDS011;354;42.694;23.336;2023-06-24T14:28:51;26.45;;;23.95;;
739;SDS011;354;42.694;23.336;2023-06-24T14:31:16;19.30;;;16.83;;
739;SDS011;354;42.694;23.336;2023-06-24T14:33:42;23.10;;;16.73;;
739;SDS011;354;42.694;23.336;2023-06-24T14:36:07;20.80;;;16.27;;
739;SDS011;354;42.694;23.336;2023-06-24T14:38:33;19.45;;;16.08;;
739;SDS011;354;42.694;23.336;2023-06-24T14:40:58;33.35;;;25.88;;
739;SDS011;354;42.694;23.336;2023-06-24T14:43:24;22.95;;;16.73;;
739;SDS011;354;42.694;23.336;2023-06-24T14:45:49;16.55;;;14.82;;
739;SDS011;354;42.694;23.336;2023-06-24T14:48:14;20.10;;;15.65;;
739;SDS011;354;42.694;23.336;2023-06-24T14:50:40;16.23;;;14.43;;
739;SDS011;354;42.694;23.336;2023-06-24T14:53:05;20.23;;;14.45;;
739;SDS011;354;42.694;23.336;2023-06-24T14:55:31;16.67;;;14.43;;
739;SDS011;354;42.694;23.336;2023-06-24T14:57:56;18.70;;;14.52;;
739;SDS011;354;42.694;23.336;2023-06-24T15:00:22;16.25;;;13.25;;
739;SDS011;354;42.694;23.336;2023-06-24T15:02:47;26.48;;;14.63;;
739;SDS011;354;42.694;23.336;2023-06-24T15:05:13;19.27;;;14.38;;
739;SDS011;354;42.694;23.336;2023-06-24T15:07:38;16.48;;;13.80;;
739;SDS011;354;42.694;23.336;2023-06-24T15:10:04;14.15;;;12.30;;
739;SDS011;354;42.694;23.336;2023-06-24T15:12:30;17.83;;;14.05;;
739;SDS011;354;42.694;23.336;2023-06-24T15:14:56;21.08;;;15.18;;
739;SDS011;354;42.694;23.336;2023-06-24T15:17:21;15.88;;;13.77;;
739;SDS011;354;42.694;23.336;2023-06-24T15:19:47;16.40;;;13.45;;
739;SDS011;354;42.694;23.336;2023-06-24T15:22:13;15.73;;;13.00;;
739;SDS011;354;42.694;23.336;2023-06-24T15:24:38;18.83;;;11.93;;
739;SDS011;354;42.694;23.336;2023-06-24T15:27:04;24.90;;;13.10;;
739;SDS011;354;42.694;23.336;2023-06-24T15:29:29;23.15;;;14.60;;
739;SDS011;354;42.694;23.336;2023-06-24T15:31:55;17.00;;;12.73;;
739;SDS011;354;42.694;23.336;2023-06-24T15:34:20;16.73;;;13.05;;
739;SDS011;354;42.694;23.336;2023-06-24T15:36:45;16.90;;;12.90;;
739;SDS011;354;42.694;23.336;2023-06-24T15:39:11;17.48;;;12.75;;
739;SDS011;354;42.694;23.336;2023-06-24T15:41:37;15.90;;;12.90;;
739;SDS011;354;42.694;23.336;2023-06-24T15:44:06;15.93;;;11.38;;
739;SDS011;354;42.694;23.336;2023-06-24T15:46:31;17.60;;;12.20;;
739;SDS011;354;42.694;23.336;2023-06-24T15:48:56;16.90;;;11.50;;
739;SDS011;354;42.694;23.336;2023-06-24T15:51:22;19.15;;;11.75;;
739;SDS011;354;42.694;23.336;2023-06-24T15:53:47;16.30;;;13.25;;
739;SDS011;354;42.694;23.336;2023-06-24T15:56:13;16.60;;;12.75;;
739;SDS011;354;42.694;23.336;2023-06-24T15:58:38;19.08;;;13.45;;
739;SDS011;354;42.694;23.336;2023-06-24T16:01:05;19.80;;;14.13;;
739;SDS011;354;42.694;23.336;2023-06-24T16:03:30;16.63;;;13.18;;
739;SDS011;354;42.694;23.336;2023-06-24T16:05:55;18.60;;;13.57;;
739;SDS011;354;42.694;23.336;2023-06-24T16:08:21;20.98;;;14.02;;
739;SDS011;354;42.694;23.336;2023-06-24T16:10:46;17.42;;;14.48;;
739;SDS011;354;42.694;23.336;2023-06-24T16:13:12;19.02;;;14.43;;
739;SDS011;354;42.694;23.336;2023-06-24T16:15:37;17.55;;;13.52;;
739;SDS011;354;42.694;23.336;2023-06-24T16:18:03;16.60;;;13.27;;
739;SDS011;354;42.694;23.336;2023-06-24T16:20:28;15.43;;;12.65;;
739;SDS011;354;42.694;23.336;2023-06-24T16:22:54;17.10;;;13.07;;
739;SDS011;354;42.694;23.336;2023-06-24T16:25:19;15.30;;;12.27;;
739;SDS011;354;42.694;23.336;2023-06-24T16:27:45;15.10;;;12.82;;
739;SDS011;354;42.694;23.336;2023-06-24T16:30:10;16.10;;;12.93;;
739;SDS011;354;42.694;23.336;2023-06-24T16:32:36;13.93;;;12.52;;
739;SDS011;354;42.694;23.336;2023-06-24T16:35:01;14.68;;;13.20;;
739;SDS011;354;42.694;23.336;2023-06-24T16:37:26;15.52;;;13.80;;
739;SDS011;354;42.694;23.336;2023-06-24T16:39:52;15.20;;;12.82;;
739;SDS011;354;42.694;23.336;2023-06-24T16:42:17;19.80;;;16.83;;
739;SDS011;354;42.694;23.336;2023-06-24T16:44:43;16.80;;;13.77;;
739;SDS011;354;42.694;23.336;2023-06-24T16:47:11;20.17;;;14.20;;
739;SDS011;354;42.694;23.336;2023-06-24T16:49:37;18.58;;;15.35;;
739;SDS011;354;42.694;23.336;2023-06-24T16:52:02;19.80;;;16.95;;
739;SDS011;354;42.694;23.336;2023-06-24T16:54:28;20.25;;;14.30;;
739;SDS011;354;42.694;23.336;2023-06-24T16:56:53;15.98;;;13.90;;
739;SDS011;354;42.694;23.336;2023-06-24T16:59:19;17.05;;;13.38;;
739;SDS011;354;42.694;23.336;2023-06-24T17:01:44;20.80;;;18.17;;
739;SDS011;354;42.694;23.336;2023-06-24T17:04:09;22.00;;;14.07;;
739;SDS011;354;42.694;23.336;2023-06-24T17:06:35;14.75;;;13.15;;
739;SDS011;354;42.694;23.336;2023-06-24T17:09:01;17.10;;;15.50;;
739;SDS011;354;42.694;23.336;2023-06-24T17:11:28;14.65;;;13.20;;
739;SDS011;354;42.694;23.336;2023-06-24T17:13:54;14.70;;;13.10;;
739;SDS011;354;42.694;23.336;2023-06-24T17:16:19;16.15;;;14.52;;
739;SDS011;354;42.694;23.336;2023-06-24T17:18:44;16.67;;;14.88;;
739;SDS011;354;42.694;23.336;2023-06-24T17:21:10;15.55;;;13.90;;
739;SDS011;354;42.694;23.336;2023-06-24T17:23:36;15.23;;;13.90;;
739;SDS011;354;42.694;23.336;2023-06-24T17:26:01;15.38;;;13.98;;
739;SDS011;354;42.694;23.336;2023-06-24T17:28:27;17.08;;;14.40;;
739;SDS011;354;42.694;23.336;2023-06-24T17:30:52;15.75;;;14.15;;
739;SDS011;354;42.694;23.336;2023-06-24T17:33:18;16.42;;;14.75;;
739;SDS011;354;42.694;23.336;2023-06-24T17:35:43;20.65;;;18.60;;
739;SDS011;354;42.694;23.336;2023-06-24T17:38:08;17.08;;;15.18;;
739;SDS011;354;42.694;23.336;2023-06-24T17:40:34;16.50;;;14.98;;
739;SDS011;354;42.694;23.336;2023-06-24T17:42:59;19.02;;;16.60;;
739;SDS011;354;42.694;23.336;2023-06-24T17:45:24;16.88;;;15.27;;
739;SDS011;354;42.694;23.336;2023-06-24T17:47:51;22.55;;;20.15;;
739;SDS011;354;42.694;23.336;2023-06-24T17:50:17;18.48;;;16.55;;
739;SDS011;354;42.694;23.336;2023-06-24T17:52:42;17.85;;;16.25;;
739;SDS011;354;42.694;23.336;2023-06-24T17:55:08;16.98;;;15.27;;
739;SDS011;354;42.694;23.336;2023-06-24T17:57:33;15.82;;;14.23;;
739;SDS011;354;42.694;23.336;2023-06-24T17:59:59;21.48;;;15.20;;
739;SDS011;354;42.694;23.336;2023-06-24T18:02:24;17.05;;;15.45;;
739;SDS011;354;42.694;23.336;2023-06-24T18:04:49;21.13;;;18.95;;
739;SDS011;354;42.694;23.336;2023-06-24T18:07:15;20.58;;;18.33;;
739;SDS011;354;42.694;23.336;2023-06-24T18:09:40;20.42;;;16.27;;
739;SDS011;354;42.694;23.336;2023-06-24T18:12:06;26.35;;;20.08;;